Trammel, Virginia
Current Conditions -  °F | °C
As of 4:35 AM on Tuesday 21 Oct 2014 (Local Time) from KLNP Reporting Station
Overcast Overcast  
Wind Chill: 50°   Ceiling: 3600
Heat Index: 50°   Visibility: 10mi
Dew Point: 50°   Wind: 7mph
Humidity: 100%   Direction: 220°SW
Pressure: 29.97"   Gusts: NA
Location:  37.01°N, 82.29°W
Report Text: KLNP 210835Z AUTO 22006KT 10SM SCT018 BKN036 OVC046 10/10 A2997 RMK AO2
Loading
Personal Weather Stations






























Interactive Weather Map
Tropical Storm Tracking
New forecast layout! Learn more

10-Day Weather Forecast

Advertisements
Track Severe Weather on mobile